sensor_id;sensor_type;location;lat;lon;timestamp;P1;durP1;ratioP1;P2;durP2;ratioP2
51228;SDS011;37304;52.216;6.874;2023-05-07T00:04:53;11.70;;;8.57;;
51228;SDS011;37304;52.216;6.874;2023-05-07T00:09:54;12.55;;;7.70;;
51228;SDS011;37304;52.216;6.874;2023-05-07T00:14:54;12.53;;;8.77;;
51228;SDS011;37304;52.216;6.874;2023-05-07T00:19:54;16.27;;;8.47;;
51228;SDS011;37304;52.216;6.874;2023-05-07T00:24:55;11.93;;;8.07;;
51228;SDS011;37304;52.216;6.874;2023-05-07T00:29:55;13.13;;;8.68;;
51228;SDS011;37304;52.216;6.874;2023-05-07T00:34:56;11.63;;;9.10;;
51228;SDS011;37304;52.216;6.874;2023-05-07T00:39:56;14.90;;;9.33;;
51228;SDS011;37304;52.216;6.874;2023-05-07T00:44:57;17.63;;;9.40;;
51228;SDS011;37304;52.216;6.874;2023-05-07T00:49:57;14.15;;;9.20;;
51228;SDS011;37304;52.216;6.874;2023-05-07T00:54:59;14.05;;;9.00;;
51228;SDS011;37304;52.216;6.874;2023-05-07T01:00:04;14.82;;;10.85;;
51228;SDS011;37304;52.216;6.874;2023-05-07T01:05:06;12.45;;;9.90;;
51228;SDS011;37304;52.216;6.874;2023-05-07T01:10:09;14.48;;;9.07;;
51228;SDS011;37304;52.216;6.874;2023-05-07T01:15:11;13.18;;;9.25;;
51228;SDS011;37304;52.216;6.874;2023-05-07T01:20:11;13.47;;;9.37;;
51228;SDS011;37304;52.216;6.874;2023-05-07T01:25:12;15.07;;;10.10;;
51228;SDS011;37304;52.216;6.874;2023-05-07T01:30:13;19.05;;;10.77;;
51228;SDS011;37304;52.216;6.874;2023-05-07T01:35:15;16.05;;;10.40;;
51228;SDS011;37304;52.216;6.874;2023-05-07T01:40:19;15.73;;;11.15;;
51228;SDS011;37304;52.216;6.874;2023-05-07T01:45:20;14.32;;;9.43;;
51228;SDS011;37304;52.216;6.874;2023-05-07T01:50:21;16.40;;;10.25;;
51228;SDS011;37304;52.216;6.874;2023-05-07T01:55:22;19.13;;;10.32;;
51228;SDS011;37304;52.216;6.874;2023-05-07T02:00:23;17.63;;;9.98;;
51228;SDS011;37304;52.216;6.874;2023-05-07T02:05:24;14.65;;;8.95;;
51228;SDS011;37304;52.216;6.874;2023-05-07T02:10:24;18.17;;;9.50;;
51228;SDS011;37304;52.216;6.874;2023-05-07T02:15:24;17.83;;;10.05;;
51228;SDS011;37304;52.216;6.874;2023-05-07T02:20:25;19.63;;;9.83;;
51228;SDS011;37304;52.216;6.874;2023-05-07T02:25:25;19.80;;;10.73;;
51228;SDS011;37304;52.216;6.874;2023-05-07T02:30:26;19.27;;;10.23;;
51228;SDS011;37304;52.216;6.874;2023-05-07T02:35:26;19.60;;;10.40;;
51228;SDS011;37304;52.216;6.874;2023-05-07T02:40:27;21.23;;;10.57;;
51228;SDS011;37304;52.216;6.874;2023-05-07T02:45:27;19.53;;;11.70;;
51228;SDS011;37304;52.216;6.874;2023-05-07T02:50:27;21.73;;;11.00;;
51228;SDS011;37304;52.216;6.874;2023-05-07T02:55:28;23.67;;;11.63;;
51228;SDS011;37304;52.216;6.874;2023-05-07T03:00:28;23.83;;;12.10;;
51228;SDS011;37304;52.216;6.874;2023-05-07T03:05:28;26.57;;;12.00;;
51228;SDS011;37304;52.216;6.874;2023-05-07T03:10:29;22.50;;;11.47;;
51228;SDS011;37304;52.216;6.874;2023-05-07T03:15:30;23.42;;;12.60;;
51228;SDS011;37304;52.216;6.874;2023-05-07T03:20:31;24.85;;;12.20;;
51228;SDS011;37304;52.216;6.874;2023-05-07T03:25:31;23.15;;;11.85;;
51228;SDS011;37304;52.216;6.874;2023-05-07T03:30:32;24.15;;;12.52;;
51228;SDS011;37304;52.216;6.874;2023-05-07T03:35:32;20.03;;;11.73;;
51228;SDS011;37304;52.216;6.874;2023-05-07T03:40:33;28.07;;;13.37;;
51228;SDS011;37304;52.216;6.874;2023-05-07T03:45:33;22.23;;;12.07;;
51228;SDS011;37304;52.216;6.874;2023-05-07T03:50:34;22.07;;;12.53;;
51228;SDS011;37304;52.216;6.874;2023-05-07T03:55:34;24.00;;;12.43;;
51228;SDS011;37304;52.216;6.874;2023-05-07T04:00:35;22.67;;;13.73;;
51228;SDS011;37304;52.216;6.874;2023-05-07T04:05:38;29.45;;;13.82;;
51228;SDS011;37304;52.216;6.874;2023-05-07T04:10:38;21.67;;;12.20;;
51228;SDS011;37304;52.216;6.874;2023-05-07T04:15:38;27.50;;;12.47;;
51228;SDS011;37304;52.216;6.874;2023-05-07T04:20:39;25.30;;;12.70;;
51228;SDS011;37304;52.216;6.874;2023-05-07T04:25:40;22.13;;;13.03;;
51228;SDS011;37304;52.216;6.874;2023-05-07T04:30:41;22.00;;;12.02;;
51228;SDS011;37304;52.216;6.874;2023-05-07T04:35:41;25.13;;;14.10;;
51228;SDS011;37304;52.216;6.874;2023-05-07T04:40:42;23.30;;;13.07;;
51228;SDS011;37304;52.216;6.874;2023-05-07T04:45:42;32.10;;;13.47;;
51228;SDS011;37304;52.216;6.874;2023-05-07T04:50:43;24.15;;;13.00;;
51228;SDS011;37304;52.216;6.874;2023-05-07T04:55:43;26.10;;;13.00;;
51228;SDS011;37304;52.216;6.874;2023-05-07T05:00:45;23.40;;;12.25;;
51228;SDS011;37304;52.216;6.874;2023-05-07T05:05:45;27.33;;;12.93;;
51228;SDS011;37304;52.216;6.874;2023-05-07T05:10:45;23.47;;;12.20;;
51228;SDS011;37304;52.216;6.874;2023-05-07T05:15:48;27.30;;;12.93;;
51228;SDS011;37304;52.216;6.874;2023-05-07T05:20:50;29.02;;;13.57;;
51228;SDS011;37304;52.216;6.874;2023-05-07T05:25:55;34.05;;;13.68;;
51228;SDS011;37304;52.216;6.874;2023-05-07T05:30:57;27.77;;;14.95;;
51228;SDS011;37304;52.216;6.874;2023-05-07T05:35:59;26.27;;;12.90;;
51228;SDS011;37304;52.216;6.874;2023-05-07T05:41:00;28.63;;;14.93;;
51228;SDS011;37304;52.216;6.874;2023-05-07T05:46:00;30.93;;;13.77;;
51228;SDS011;37304;52.216;6.874;2023-05-07T05:51:00;25.23;;;13.87;;
51228;SDS011;37304;52.216;6.874;2023-05-07T05:56:01;31.53;;;13.30;;
51228;SDS011;37304;52.216;6.874;2023-05-07T06:01:01;29.10;;;13.40;;
51228;SDS011;37304;52.216;6.874;2023-05-07T06:06:02;24.88;;;13.30;;
51228;SDS011;37304;52.216;6.874;2023-05-07T06:11:03;25.70;;;13.70;;
51228;SDS011;37304;52.216;6.874;2023-05-07T06:16:03;23.53;;;13.30;;
51228;SDS011;37304;52.216;6.874;2023-05-07T06:21:04;25.02;;;12.93;;
51228;SDS011;37304;52.216;6.874;2023-05-07T06:26:04;23.67;;;12.00;;
51228;SDS011;37304;52.216;6.874;2023-05-07T06:31:12;26.40;;;13.83;;
51228;SDS011;37304;52.216;6.874;2023-05-07T06:36:16;25.70;;;12.85;;
51228;SDS011;37304;52.216;6.874;2023-05-07T06:41:16;29.23;;;12.93;;
51228;SDS011;37304;52.216;6.874;2023-05-07T06:46:16;24.33;;;14.20;;
51228;SDS011;37304;52.216;6.874;2023-05-07T06:51:20;23.70;;;12.77;;
51228;SDS011;37304;52.216;6.874;2023-05-07T06:56:20;21.98;;;12.32;;
51228;SDS011;37304;52.216;6.874;2023-05-07T07:01:21;21.40;;;11.07;;
51228;SDS011;37304;52.216;6.874;2023-05-07T07:06:21;28.53;;;12.70;;
51228;SDS011;37304;52.216;6.874;2023-05-07T07:11:21;21.60;;;12.23;;
51228;SDS011;37304;52.216;6.874;2023-05-07T07:16:22;22.85;;;11.95;;
51228;SDS011;37304;52.216;6.874;2023-05-07T07:21:22;20.80;;;11.93;;
51228;SDS011;37304;52.216;6.874;2023-05-07T07:26:22;23.00;;;11.87;;
51228;SDS011;37304;52.216;6.874;2023-05-07T07:31:24;20.92;;;12.50;;
51228;SDS011;37304;52.216;6.874;2023-05-07T07:36:24;22.77;;;11.70;;
51228;SDS011;37304;52.216;6.874;2023-05-07T07:41:26;20.13;;;12.23;;
51228;SDS011;37304;52.216;6.874;2023-05-07T07:46:26;21.17;;;11.30;;
51228;SDS011;37304;52.216;6.874;2023-05-07T07:51:27;18.30;;;10.43;;
51228;SDS011;37304;52.216;6.874;2023-05-07T07:56:27;21.38;;;10.32;;
51228;SDS011;37304;52.216;6.874;2023-05-07T08:01:31;22.17;;;11.40;;
51228;SDS011;37304;52.216;6.874;2023-05-07T08:06:31;18.63;;;9.45;;
51228;SDS011;37304;52.216;6.874;2023-05-07T08:11:31;16.03;;;9.37;;
51228;SDS011;37304;52.216;6.874;2023-05-07T08:16:32;21.07;;;10.77;;
51228;SDS011;37304;52.216;6.874;2023-05-07T08:21:32;15.73;;;10.00;;
51228;SDS011;37304;52.216;6.874;2023-05-07T08:26:34;19.73;;;10.13;;
51228;SDS011;37304;52.216;6.874;2023-05-07T08:31:35;20.58;;;9.90;;
51228;SDS011;37304;52.216;6.874;2023-05-07T08:36:36;16.63;;;9.50;;
51228;SDS011;37304;52.216;6.874;2023-05-07T08:41:37;18.17;;;9.13;;
51228;SDS011;37304;52.216;6.874;2023-05-07T08:46:37;18.17;;;9.87;;
51228;SDS011;37304;52.216;6.874;2023-05-07T08:51:39;16.23;;;9.05;;
51228;SDS011;37304;52.216;6.874;2023-05-07T08:56:39;14.98;;;10.30;;
51228;SDS011;37304;52.216;6.874;2023-05-07T09:01:40;18.10;;;9.80;;
51228;SDS011;37304;52.216;6.874;2023-05-07T09:06:40;12.77;;;8.40;;
51228;SDS011;37304;52.216;6.874;2023-05-07T09:11:41;14.93;;;9.13;;
51228;SDS011;37304;52.216;6.874;2023-05-07T09:16:42;15.93;;;9.90;;
51228;SDS011;37304;52.216;6.874;2023-05-07T09:21:42;15.20;;;8.00;;
51228;SDS011;37304;52.216;6.874;2023-05-07T09:26:43;14.77;;;8.67;;
51228;SDS011;37304;52.216;6.874;2023-05-07T09:31:43;14.13;;;9.43;;
51228;SDS011;37304;52.216;6.874;2023-05-07T09:36:44;16.77;;;9.30;;
51228;SDS011;37304;52.216;6.874;2023-05-07T09:41:47;15.07;;;8.02;;
51228;SDS011;37304;52.216;6.874;2023-05-07T09:46:53;17.05;;;9.27;;
51228;SDS011;37304;52.216;6.874;2023-05-07T09:51:55;15.02;;;9.48;;
51228;SDS011;37304;52.216;6.874;2023-05-07T09:56:56;14.43;;;9.52;;
51228;SDS011;37304;52.216;6.874;2023-05-07T10:01:59;16.15;;;8.65;;
51228;SDS011;37304;52.216;6.874;2023-05-07T10:07:00;15.98;;;9.50;;
51228;SDS011;37304;52.216;6.874;2023-05-07T10:12:01;15.90;;;9.50;;
51228;SDS011;37304;52.216;6.874;2023-05-07T10:17:01;17.92;;;9.57;;
51228;SDS011;37304;52.216;6.874;2023-05-07T10:22:03;12.93;;;8.20;;
51228;SDS011;37304;52.216;6.874;2023-05-07T10:27:07;17.15;;;9.30;;
51228;SDS011;37304;52.216;6.874;2023-05-07T10:37:49;16.77;;;8.68;;
51228;SDS011;37304;52.216;6.874;2023-05-07T10:42:56;11.15;;;7.68;;
51228;SDS011;37304;52.216;6.874;2023-05-07T11:03:27;16.95;;;8.43;;
51228;SDS011;37304;52.216;6.874;2023-05-07T11:08:41;13.00;;;8.05;;
51228;SDS011;37304;52.216;6.874;2023-05-07T11:13:57;12.40;;;7.93;;
51228;SDS011;37304;52.216;6.874;2023-05-07T11:18:58;12.50;;;7.70;;
51228;SDS011;37304;52.216;6.874;2023-05-07T11:23:59;11.48;;;7.68;;
51228;SDS011;37304;52.216;6.874;2023-05-07T11:29:00;12.13;;;7.72;;
51228;SDS011;37304;52.216;6.874;2023-05-07T11:34:00;14.80;;;8.18;;
51228;SDS011;37304;52.216;6.874;2023-05-07T11:39:01;12.25;;;8.68;;
51228;SDS011;37304;52.216;6.874;2023-05-07T11:44:02;11.57;;;7.70;;
51228;SDS011;37304;52.216;6.874;2023-05-07T11:49:02;12.25;;;7.50;;
51228;SDS011;37304;52.216;6.874;2023-05-07T11:54:05;12.77;;;7.97;;
51228;SDS011;37304;52.216;6.874;2023-05-07T11:59:08;13.68;;;7.75;;
51228;SDS011;37304;52.216;6.874;2023-05-07T12:04:12;13.60;;;8.35;;
51228;SDS011;37304;52.216;6.874;2023-05-07T12:09:12;14.00;;;8.20;;
51228;SDS011;37304;52.216;6.874;2023-05-07T12:14:13;10.77;;;6.73;;
51228;SDS011;37304;52.216;6.874;2023-05-07T12:19:16;11.45;;;7.88;;
51228;SDS011;37304;52.216;6.874;2023-05-07T12:24:17;9.52;;;5.93;;
51228;SDS011;37304;52.216;6.874;2023-05-07T12:29:17;9.00;;;6.87;;
51228;SDS011;37304;52.216;6.874;2023-05-07T12:34:22;10.55;;;6.90;;
51228;SDS011;37304;52.216;6.874;2023-05-07T12:39:23;10.67;;;6.97;;
51228;SDS011;37304;52.216;6.874;2023-05-07T12:44:23;11.00;;;6.50;;
51228;SDS011;37304;52.216;6.874;2023-05-07T12:49:25;12.77;;;7.43;;
51228;SDS011;37304;52.216;6.874;2023-05-07T12:54:31;12.75;;;7.50;;
51228;SDS011;37304;52.216;6.874;2023-05-07T12:59:36;11.05;;;6.00;;
51228;SDS011;37304;52.216;6.874;2023-05-07T13:04:38;9.02;;;6.10;;
51228;SDS011;37304;52.216;6.874;2023-05-07T13:09:39;10.20;;;5.67;;
51228;SDS011;37304;52.216;6.874;2023-05-07T13:14:42;7.87;;;5.30;;
51228;SDS011;37304;52.216;6.874;2023-05-07T13:19:42;8.60;;;5.57;;
51228;SDS011;37304;52.216;6.874;2023-05-07T13:24:43;10.63;;;5.67;;
51228;SDS011;37304;52.216;6.874;2023-05-07T13:29:43;8.83;;;5.70;;
51228;SDS011;37304;52.216;6.874;2023-05-07T13:34:44;7.97;;;5.03;;
51228;SDS011;37304;52.216;6.874;2023-05-07T13:39:44;8.17;;;5.53;;
51228;SDS011;37304;52.216;6.874;2023-05-07T13:44:45;8.52;;;4.88;;
51228;SDS011;37304;52.216;6.874;2023-05-07T13:49:46;9.13;;;5.37;;
51228;SDS011;37304;52.216;6.874;2023-05-07T13:54:49;8.25;;;5.15;;
51228;SDS011;37304;52.216;6.874;2023-05-07T13:59:52;7.82;;;4.57;;
51228;SDS011;37304;52.216;6.874;2023-05-07T14:04:52;7.77;;;4.97;;
51228;SDS011;37304;52.216;6.874;2023-05-07T14:09:52;7.90;;;4.77;;
51228;SDS011;37304;52.216;6.874;2023-05-07T14:14:53;8.17;;;5.30;;
51228;SDS011;37304;52.216;6.874;2023-05-07T14:19:53;8.03;;;5.20;;
51228;SDS011;37304;52.216;6.874;2023-05-07T14:24:54;6.93;;;5.15;;
51228;SDS011;37304;52.216;6.874;2023-05-07T14:29:55;5.95;;;4.63;;
51228;SDS011;37304;52.216;6.874;2023-05-07T14:34:55;8.02;;;4.85;;
51228;SDS011;37304;52.216;6.874;2023-05-07T14:39:56;4.77;;;3.47;;
51228;SDS011;37304;52.216;6.874;2023-05-07T14:44:56;5.87;;;3.90;;
51228;SDS011;37304;52.216;6.874;2023-05-07T14:49:56;8.20;;;5.90;;
51228;SDS011;37304;52.216;6.874;2023-05-07T14:54:58;7.88;;;5.60;;
51228;SDS011;37304;52.216;6.874;2023-05-07T14:59:58;7.97;;;5.10;;
51228;SDS011;37304;52.216;6.874;2023-05-07T15:04:59;6.83;;;4.50;;
51228;SDS011;37304;52.216;6.874;2023-05-07T15:09:59;6.87;;;4.73;;
51228;SDS011;37304;52.216;6.874;2023-05-07T15:15:00;6.13;;;4.13;;
51228;SDS011;37304;52.216;6.874;2023-05-07T15:20:00;6.37;;;4.90;;
51228;SDS011;37304;52.216;6.874;2023-05-07T15:25:01;8.13;;;4.33;;
51228;SDS011;37304;52.216;6.874;2023-05-07T15:30:01;5.95;;;4.38;;
51228;SDS011;37304;52.216;6.874;2023-05-07T15:35:02;6.85;;;4.25;;
51228;SDS011;37304;52.216;6.874;2023-05-07T15:40:03;8.63;;;3.55;;
51228;SDS011;37304;52.216;6.874;2023-05-07T15:45:06;8.43;;;5.40;;
51228;SDS011;37304;52.216;6.874;2023-05-07T15:50:08;7.55;;;4.47;;
51228;SDS011;37304;52.216;6.874;2023-05-07T15:55:08;6.10;;;4.55;;
51228;SDS011;37304;52.216;6.874;2023-05-07T16:00:09;6.72;;;4.43;;
51228;SDS011;37304;52.216;6.874;2023-05-07T16:05:11;5.63;;;3.97;;
51228;SDS011;37304;52.216;6.874;2023-05-07T16:10:12;6.95;;;3.97;;
51228;SDS011;37304;52.216;6.874;2023-05-07T16:15:12;7.43;;;4.43;;
51228;SDS011;37304;52.216;6.874;2023-05-07T16:20:13;8.37;;;5.23;;
51228;SDS011;37304;52.216;6.874;2023-05-07T16:25:15;7.22;;;4.90;;
51228;SDS011;37304;52.216;6.874;2023-05-07T16:30:16;6.73;;;4.30;;
51228;SDS011;37304;52.216;6.874;2023-05-07T16:35:16;7.10;;;4.47;;
51228;SDS011;37304;52.216;6.874;2023-05-07T16:40:16;8.10;;;4.87;;
51228;SDS011;37304;52.216;6.874;2023-05-07T16:45:17;7.03;;;3.97;;
51228;SDS011;37304;52.216;6.874;2023-05-07T16:50:18;7.30;;;4.32;;
51228;SDS011;37304;52.216;6.874;2023-05-07T16:55:18;6.40;;;4.20;;
51228;SDS011;37304;52.216;6.874;2023-05-07T17:00:19;6.75;;;4.72;;
51228;SDS011;37304;52.216;6.874;2023-05-07T17:05:19;7.20;;;4.03;;
51228;SDS011;37304;52.216;6.874;2023-05-07T17:10:20;6.30;;;3.90;;
51228;SDS011;37304;52.216;6.874;2023-05-07T17:15:20;6.85;;;4.05;;
51228;SDS011;37304;52.216;6.874;2023-05-07T17:20:21;7.43;;;3.87;;
51228;SDS011;37304;52.216;6.874;2023-05-07T17:25:21;6.40;;;4.40;;
51228;SDS011;37304;52.216;6.874;2023-05-07T17:30:22;8.13;;;4.65;;
51228;SDS011;37304;52.216;6.874;2023-05-07T17:35:22;7.20;;;4.13;;
51228;SDS011;37304;52.216;6.874;2023-05-07T17:40:23;5.83;;;3.67;;
51228;SDS011;37304;52.216;6.874;2023-05-07T17:45:23;6.60;;;4.00;;
51228;SDS011;37304;52.216;6.874;2023-05-07T17:50:23;6.13;;;3.80;;
51228;SDS011;37304;52.216;6.874;2023-05-07T17:55:24;8.30;;;4.00;;
51228;SDS011;37304;52.216;6.874;2023-05-07T18:00:24;5.67;;;3.63;;
51228;SDS011;37304;52.216;6.874;2023-05-07T18:05:25;4.87;;;3.60;;
51228;SDS011;37304;52.216;6.874;2023-05-07T18:10:25;5.90;;;4.15;;
51228;SDS011;37304;52.216;6.874;2023-05-07T18:15:26;5.93;;;3.95;;
51228;SDS011;37304;52.216;6.874;2023-05-07T18:20:27;5.15;;;3.83;;
51228;SDS011;37304;52.216;6.874;2023-05-07T18:25:27;6.13;;;3.77;;
51228;SDS011;37304;52.216;6.874;2023-05-07T18:30:28;6.17;;;3.63;;
51228;SDS011;37304;52.216;6.874;2023-05-07T18:35:29;7.00;;;3.57;;
51228;SDS011;37304;52.216;6.874;2023-05-07T18:40:30;7.85;;;3.65;;
51228;SDS011;37304;52.216;6.874;2023-05-07T18:45:34;9.27;;;4.07;;
51228;SDS011;37304;52.216;6.874;2023-05-07T18:50:34;6.28;;;4.22;;
51228;SDS011;37304;52.216;6.874;2023-05-07T18:55:35;8.23;;;3.83;;
51228;SDS011;37304;52.216;6.874;2023-05-07T19:00:35;8.23;;;4.43;;
51228;SDS011;37304;52.216;6.874;2023-05-07T19:05:35;7.23;;;3.87;;
51228;SDS011;37304;52.216;6.874;2023-05-07T19:10:36;5.63;;;3.87;;
51228;SDS011;37304;52.216;6.874;2023-05-07T19:15:36;7.93;;;4.70;;
51228;SDS011;37304;52.216;6.874;2023-05-07T19:20:37;6.73;;;4.00;;
51228;SDS011;37304;52.216;6.874;2023-05-07T19:25:37;6.23;;;4.53;;
51228;SDS011;37304;52.216;6.874;2023-05-07T19:30:38;6.43;;;4.53;;
51228;SDS011;37304;52.216;6.874;2023-05-07T19:35:39;8.65;;;4.20;;
51228;SDS011;37304;52.216;6.874;2023-05-07T19:40:40;6.77;;;4.07;;
51228;SDS011;37304;52.216;6.874;2023-05-07T19:45:40;8.47;;;5.30;;
51228;SDS011;37304;52.216;6.874;2023-05-07T19:50:42;6.00;;;4.45;;
51228;SDS011;37304;52.216;6.874;2023-05-07T19:55:42;8.47;;;4.87;;
51228;SDS011;37304;52.216;6.874;2023-05-07T20:00:43;7.07;;;4.60;;
51228;SDS011;37304;52.216;6.874;2023-05-07T20:05:44;8.93;;;5.10;;
51228;SDS011;37304;52.216;6.874;2023-05-07T20:10:46;6.47;;;4.50;;
51228;SDS011;37304;52.216;6.874;2023-05-07T20:15:47;9.50;;;4.80;;
51228;SDS011;37304;52.216;6.874;2023-05-07T20:20:47;6.93;;;4.57;;
51228;SDS011;37304;52.216;6.874;2023-05-07T20:25:48;7.77;;;4.80;;
51228;SDS011;37304;52.216;6.874;2023-05-07T20:30:49;7.35;;;5.35;;
51228;SDS011;37304;52.216;6.874;2023-05-07T20:35:49;7.88;;;4.85;;
51228;SDS011;37304;52.216;6.874;2023-05-07T20:40:50;8.70;;;5.03;;
51228;SDS011;37304;52.216;6.874;2023-05-07T20:46:03;9.30;;;5.27;;
51228;SDS011;37304;52.216;6.874;2023-05-07T20:51:04;9.57;;;4.95;;
51228;SDS011;37304;52.216;6.874;2023-05-07T20:56:04;9.43;;;5.27;;
51228;SDS011;37304;52.216;6.874;2023-05-07T21:01:05;6.77;;;5.47;;
51228;SDS011;37304;52.216;6.874;2023-05-07T21:06:05;10.07;;;5.68;;
51228;SDS011;37304;52.216;6.874;2023-05-07T21:11:06;10.33;;;6.40;;
51228;SDS011;37304;52.216;6.874;2023-05-07T21:16:08;8.93;;;6.05;;
51228;SDS011;37304;52.216;6.874;2023-05-07T21:21:09;9.15;;;6.78;;
51228;SDS011;37304;52.216;6.874;2023-05-07T21:26:15;10.83;;;6.73;;
51228;SDS011;37304;52.216;6.874;2023-05-07T21:31:17;8.45;;;5.53;;
51228;SDS011;37304;52.216;6.874;2023-05-07T21:36:17;9.27;;;6.60;;
51228;SDS011;37304;52.216;6.874;2023-05-07T21:41:18;10.75;;;7.10;;
51228;SDS011;37304;52.216;6.874;2023-05-07T21:46:19;9.40;;;6.70;;
51228;SDS011;37304;52.216;6.874;2023-05-07T21:51:20;11.70;;;7.60;;
51228;SDS011;37304;52.216;6.874;2023-05-07T21:56:20;9.82;;;6.63;;
51228;SDS011;37304;52.216;6.874;2023-05-07T22:01:21;10.70;;;7.10;;
51228;SDS011;37304;52.216;6.874;2023-05-07T22:06:21;11.30;;;7.40;;
51228;SDS011;37304;52.216;6.874;2023-05-07T22:11:21;11.73;;;7.17;;
51228;SDS011;37304;52.216;6.874;2023-05-07T22:16:22;10.40;;;7.20;;
51228;SDS011;37304;52.216;6.874;2023-05-07T22:21:22;12.67;;;7.33;;
51228;SDS011;37304;52.216;6.874;2023-05-07T22:26:23;15.43;;;8.57;;
51228;SDS011;37304;52.216;6.874;2023-05-07T22:31:23;12.50;;;7.90;;
51228;SDS011;37304;52.216;6.874;2023-05-07T22:36:23;11.53;;;7.27;;
51228;SDS011;37304;52.216;6.874;2023-05-07T22:41:24;11.67;;;7.53;;
51228;SDS011;37304;52.216;6.874;2023-05-07T22:46:24;9.80;;;7.60;;
51228;SDS011;37304;52.216;6.874;2023-05-07T22:51:25;12.52;;;7.18;;
51228;SDS011;37304;52.216;6.874;2023-05-07T22:56:26;11.43;;;7.35;;
51228;SDS011;37304;52.216;6.874;2023-05-07T23:01:26;12.57;;;8.30;;
51228;SDS011;37304;52.216;6.874;2023-05-07T23:06:27;12.00;;;7.80;;
51228;SDS011;37304;52.216;6.874;2023-05-07T23:11:27;10.53;;;7.60;;
51228;SDS011;37304;52.216;6.874;2023-05-07T23:16:27;11.73;;;7.40;;
51228;SDS011;37304;52.216;6.874;2023-05-07T23:21:28;12.50;;;7.23;;
51228;SDS011;37304;52.216;6.874;2023-05-07T23:26:28;10.50;;;7.03;;
51228;SDS011;37304;52.216;6.874;2023-05-07T23:31:29;12.77;;;8.20;;
51228;SDS011;37304;52.216;6.874;2023-05-07T23:36:30;13.45;;;7.90;;
51228;SDS011;37304;52.216;6.874;2023-05-07T23:41:31;11.73;;;7.32;;
51228;SDS011;37304;52.216;6.874;2023-05-07T23:46:32;11.67;;;7.93;;
51228;SDS011;37304;52.216;6.874;2023-05-07T23:51:32;9.63;;;6.87;;
51228;SDS011;37304;52.216;6.874;2023-05-07T23:56:32;12.87;;;7.93;;
